Terminal Aerodrome Forecast
Issued by NWS Burlington, VT

Home | Current Version | Previous Version | Text Only | Print | Product List | Glossary On
Versions: 1 2 3 4 5 6 7 8 9 10 11 12 13 14
000
FTUS41 KBTV 190500
TAFBTV
TAF
KBTV 190522Z 1906/2006 21007KT P6SM VCSH OVC040
     FM190800 27008KT P6SM VCSH OVC040
      TEMPO 1908/1911 BKN025
     FM191100 32010KT P6SM BKN025 OVC040
     FM191400 32012G22KT P6SM BKN040
     FM192100 34008KT P6SM SKC=

USA.gov is the U.S. government's official web portal to all federal, state and local government web resources and services.